Davenport, IA (52809)

7:58 AM CST on December 05, 2016 (GMT -0600)
Southeast Davenport | | Change Station
Active Advisory: Dense Fog Advisory Active Notice: Local Storm Report

Elev 659 ft 41.54 °N, 90.56 °W | Updated 32 seconds ago

Fog
Fog
33.8 °F
Feels Like 34 °F
N
0.0
Wind Variable Wind from South
Gusts 0.7 mph

Today
High -- | Low -- °F
--% Chance of Precip.
Yesterday
High -- | Low -- °F
Precip. -- in
Pressure 30.00 in
Visibility 0.5 miles
Clouds Overcast 200 ft
Windchill 34 °F
Dew Point 33 °F
Humidity 98%
Rainfall 0.05 in
Snow Depth Not available.
7:13 AM 4:32 PM
Waxing Crescent, 32% visible
METAR KMLI 051352Z 18008KT 1/2SM R09/2800VP6000FT FG OVC002 00/M01 A2998 RMK AO2 SLP159 I1000 T00001011
Pressure 30.00 in
Visibility 0.5 miles
Clouds Overcast 200 ft
Windchill 34 °F
Dew Point 33 °F
Humidity 98%
Rainfall 0.05 in
Snow Depth Not available.
7:13 AM 4:32 PM
Waxing Crescent, 32% visible
METAR KMLI 051352Z 18008KT 1/2SM R09/2800VP6000FT FG OVC002 00/M01 A2998 RMK AO2 SLP159 I1000 T00001011

10-Day Weather Forecast

Almanac

Astronomy

Dec. 05, 2016 Rise Set
Actual Time
Civil Twilight
Nautical Twilight
Astronomical Twilight
Moon
Length of Visible Light
Length of Day
Tomorrow will be .
, % of the Moon is Illuminated

Today's Extremes

State Highs State Lows

Community

WunderPhotos

Upload Photos

1,955,780 photos uploaded!

WunderBlog® & News

Nearby

Air Quality

  Air Quality AQ Index Pollutant
Not available.

Snow Depth

Station Depth Elevation

Earthquake Activity

City Distance Mag. Time & Date
Minimum magnitude displayed is 2.5.

Coastal Water Temperatures

Place Temperature

Stations

Nearby Weather Stations

Station Location Temp. Windchill Dew Point Humidity Wind Precip. Elev Updated Type
                   

Watches & Warnings

Dense Fog Advisory
Issued: 5:47 AM CST Dec. 5, 2016 – National Weather Service

... Dense fog advisory in effect until noon CST today...

The National Weather Service in Quad Cities has issued a dense
fog advisory... which is in effect until noon CST today.

* Timing... now through noon Monday.

* Impacts... visibilities less than 1/4 mile and some near zero
will make driving difficult.

Precautionary/preparedness actions...

A dense fog advisory means visibilities will frequently be
reduced to less than one quarter mile. If driving... slow down...
use your headlights... and leave plenty of distance ahead of you.

A dense fog advisory means visibilities will frequently be
reduced to less than one quarter mile. If driving, slow down, use
your headlights, and leave plenty of distance ahead of you.